Time;durP1;ratioP1;P1;durP2;ratioP2;P2;SDS_P1;SDS_P2;PMS_P1;PMS_P2;Temp;Humidity;BMP_temperature;BMP_pressure;BME280_temperature;BME280_humidity;BME280_pressure;Samples;Min_cycle;Max_cycle;Signal;HPM_P1;HPM_P2
2022/06/14 00:02:57;;;;;;;;;5.00;5.00;;;;;19.02;45.76;101605.66;5072947;28;45956;-56
2022/06/14 00:05:23;;;;;;;;;6.67;5.00;;;;;19.00;46.03;101604.88;5074952;27;45401;-56
2022/06/14 00:07:48;;;;;;;;;6.33;6.33;;;;;18.97;45.99;101605.13;5076524;27;45427;-58
2022/06/14 00:10:13;;;;;;;;;7.00;5.00;;;;;18.91;46.27;101606.47;5073530;27;45507;-59
2022/06/14 00:12:39;;;;;;;;;4.00;4.00;;;;;18.90;46.32;101606.56;5072733;27;45400;-57
2022/06/14 00:15:05;;;;;;;;;5.67;5.67;;;;;18.85;46.53;101598.81;5075328;27;45489;-58
2022/06/14 00:17:31;;;;;;;;;6.00;6.00;;;;;18.85;46.64;101610.44;5076400;27;45247;-57
2022/06/14 00:19:57;;;;;;;;;7.00;7.00;;;;;18.84;46.17;101603.34;5072251;27;45169;-58
2022/06/14 00:22:22;;;;;;;;;8.00;8.00;;;;;18.79;46.48;101605.53;5074174;27;46483;-59
2022/06/14 00:24:47;;;;;;;;;7.33;5.67;;;;;18.76;46.81;101595.00;5075329;27;45856;-56
2022/06/14 00:27:13;;;;;;;;;8.67;6.00;;;;;18.67;46.59;101595.66;5074332;27;45414;-57
2022/06/14 00:29:38;;;;;;;;;5.67;5.67;;;;;18.60;46.86;101583.56;5075305;27;45578;-55
2022/06/14 00:32:04;;;;;;;;;6.33;5.33;;;;;18.54;46.95;101597.50;5074770;27;46006;-61
2022/06/14 00:34:29;;;;;;;;;5.33;5.33;;;;;18.48;47.05;101592.56;5076036;27;45555;-58
2022/06/14 00:36:56;;;;;;;;;5.00;5.00;;;;;18.47;47.25;101598.91;5074435;27;45432;-59
2022/06/14 00:39:22;;;;;;;;;4.67;4.67;;;;;18.45;47.09;101601.72;5075199;27;45547;-60
2022/06/14 00:41:51;;;;;;;;;5.00;5.00;;;;;18.41;47.58;101604.78;5071587;27;46387;-57
2022/06/14 00:44:20;;;;;;;;;8.33;4.33;;;;;18.42;47.47;101601.09;5074930;27;45397;-60
2022/06/14 00:47:15;;;;;;;;;8.00;6.00;;;;;18.37;47.17;101605.97;5075497;27;45408;-58
2022/06/14 00:49:51;;;;;;;;;6.00;5.00;;;;;18.34;47.40;101609.72;5074389;27;45302;-57
2022/06/14 00:52:41;;;;;;;;;5.67;5.67;;;;;18.36;47.27;101602.41;5074201;27;46176;-59
2022/06/14 00:55:15;;;;;;;;;5.00;5.00;;;;;18.33;47.42;101591.84;5072602;27;45350;-55
2022/06/14 00:57:49;;;;;;;;;5.33;5.00;;;;;18.37;47.48;101597.91;5071395;28;45235;-57
2022/06/14 01:00:19;;;;;;;;;4.67;4.67;;;;;18.39;47.43;101598.63;5077328;27;45336;-61
2022/06/14 01:02:54;;;;;;;;;4.33;4.33;;;;;18.34;47.56;101593.56;5073759;27;45583;-58
2022/06/14 01:05:27;;;;;;;;;5.00;5.00;;;;;18.35;47.46;101599.81;5079084;27;45538;-60
2022/06/14 01:07:57;;;;;;;;;5.00;5.00;;;;;18.34;47.31;101596.25;5078129;27;45341;-60
2022/06/14 01:10:30;;;;;;;;;6.00;6.00;;;;;18.32;47.42;101591.97;5075961;27;45247;-59
2022/06/14 01:13:01;;;;;;;;;5.33;5.33;;;;;18.30;47.46;101586.69;5064783;27;46077;-56
2022/06/14 01:15:32;;;;;;;;;6.67;6.67;;;;;18.19;48.00;101587.47;5077638;27;45493;-58
2022/06/14 01:18:03;;;;;;;;;8.00;7.33;;;;;18.16;47.87;101590.38;5093415;27;45843;-61
2022/06/14 01:20:29;;;;;;;;;4.00;4.00;;;;;18.11;48.20;101584.50;5077355;27;45514;-55
2022/06/14 01:22:55;;;;;;;;;6.00;5.00;;;;;18.07;48.50;101590.19;5078893;27;45675;-56
2022/06/14 01:25:22;;;;;;;;;4.00;4.00;;;;;18.01;48.05;101580.72;5075713;27;45511;-58
2022/06/14 01:27:48;;;;;;;;;4.67;4.67;;;;;17.92;48.08;101576.84;5078286;27;45325;-58
2022/06/14 01:30:36;;;;;;;;;7.00;4.00;;;;;17.88;48.30;101578.03;5076022;27;45306;-53
2022/06/14 01:33:11;;;;;;;;;3.67;3.67;;;;;17.82;48.80;101583.00;5058754;28;45467;-57
2022/06/14 01:35:38;;;;;;;;;4.00;4.00;;;;;17.74;48.70;101562.03;5065208;28;45506;-54
2022/06/14 01:38:15;;;;;;;;;6.00;4.00;;;;;17.78;48.34;101573.41;5094242;27;45333;-58
2022/06/14 01:40:50;;;;;;;;;6.33;4.67;;;;;17.74;48.47;101572.78;5078326;27;45401;-56
2022/06/14 01:43:40;;;;;;;;;4.33;3.00;;;;;17.81;48.78;101581.25;5077957;27;45579;-58
2022/06/14 01:46:14;;;;;;;;;3.00;3.00;;;;;17.76;48.63;101576.22;5077986;27;45273;-57
2022/06/14 01:48:45;;;;;;;;;3.67;3.67;;;;;17.64;48.73;101564.47;5076860;27;45489;-57
2022/06/14 01:51:51;;;;;;;;;5.67;4.00;;;;;17.55;48.76;101573.16;5073600;27;45320;-56
2022/06/14 01:54:38;;;;;;;;;7.00;4.33;;;;;17.49;49.42;101560.16;5074893;27;45439;-56
2022/06/14 01:57:15;;;;;;;;;4.00;4.00;;;;;17.48;49.61;101573.72;5058169;28;45358;-57
2022/06/14 01:59:52;;;;;;;;;5.00;3.33;;;;;17.43;49.42;101563.25;5064807;28;45196;-55
2022/06/14 02:02:28;;;;;;;;;5.00;4.00;;;;;17.39;49.88;101561.75;5078675;27;45362;-56
2022/06/14 02:05:01;;;;;;;;;4.00;4.00;;;;;17.33;49.70;101560.38;5077368;27;45686;-56
2022/06/14 02:07:56;;;;;;;;;3.00;3.00;;;;;17.25;49.96;101551.09;5076120;27;45317;-57
2022/06/14 02:10:39;;;;;;;;;4.00;4.00;;;;;17.25;49.95;101546.56;5075391;27;45325;-58
2022/06/14 02:13:24;;;;;;;;;4.67;4.67;;;;;17.30;50.02;101546.25;5078341;27;45464;-56
2022/06/14 02:15:55;;;;;;;;;3.00;3.00;;;;;17.33;50.06;101540.69;5075406;28;47376;-58
2022/06/14 02:18:20;;;;;;;;;5.00;4.00;;;;;17.30;49.90;101540.88;5076191;27;45461;-56
2022/06/14 02:20:56;;;;;;;;;2.67;2.67;;;;;17.24;49.97;101547.53;5074790;27;45576;-57
2022/06/14 02:23:24;;;;;;;;;3.00;3.00;;;;;17.17;49.98;101546.22;5075953;27;45516;-56
2022/06/14 02:25:58;;;;;;;;;2.00;2.00;;;;;17.18;50.16;101544.41;5075901;28;46404;-59
2022/06/14 02:28:41;;;;;;;;;5.00;3.67;;;;;17.18;50.01;101552.47;5076107;27;45503;-59
2022/06/14 02:31:13;;;;;;;;;3.00;3.00;;;;;17.12;50.54;101552.91;5063818;27;45455;-57
2022/06/14 02:34:02;;;;;;;;;4.67;4.67;;;;;17.03;50.03;101551.69;5077230;27;45704;-57
2022/06/14 02:36:35;;;;;;;;;6.00;4.67;;;;;16.97;50.88;101550.28;5077796;27;46303;-59
2022/06/14 02:39:11;;;;;;;;;6.33;4.00;;;;;16.95;50.65;101554.91;5091034;27;45409;-57
2022/06/14 02:41:58;;;;;;;;;3.67;3.67;;;;;16.92;50.96;101546.19;5076914;28;45421;-59
2022/06/14 02:44:30;;;;;;;;;3.00;3.00;;;;;16.84;51.05;101548.53;5074457;27;45639;-54
2022/06/14 02:46:59;;;;;;;;;3.00;2.00;;;;;16.86;51.02;101547.47;5057378;28;46187;-57
2022/06/14 02:49:41;;;;;;;;;4.00;4.00;;;;;16.84;51.34;101548.53;5065154;28;45578;-54
2022/06/14 02:52:33;;;;;;;;;3.00;3.00;;;;;16.79;51.12;101546.13;5093087;27;45568;-56
2022/06/14 02:55:09;;;;;;;;;9.50;5.00;;;;;16.82;51.64;101548.63;5074283;27;45439;-57
2022/06/14 02:57:55;;;;;;;;;6.00;4.00;;;;;16.76;51.53;101546.34;5077421;27;46303;-59
2022/06/14 03:00:41;;;;;;;;;4.00;4.00;;;;;16.74;51.20;101532.16;5075249;27;45432;-57
2022/06/14 03:03:13;;;;;;;;;3.00;3.00;;;;;16.70;51.58;101536.88;5077957;27;45471;-58
2022/06/14 03:05:50;;;;;;;;;4.67;4.00;;;;;16.68;51.37;101528.06;5076217;27;45212;-58
2022/06/14 03:08:24;;;;;;;;;3.67;3.67;;;;;16.64;51.81;101520.28;5074078;27;48095;-61
2022/06/14 03:11:03;;;;;;;;;6.33;5.00;;;;;16.59;52.20;101522.41;5057509;27;45506;-54
2022/06/14 03:13:40;;;;;;;;;4.00;4.00;;;;;16.58;52.02;101528.75;5076820;27;45327;-58
2022/06/14 03:16:29;;;;;;;;;3.00;3.00;;;;;16.57;52.01;101524.34;5076460;27;45410;-56
2022/06/14 03:19:07;;;;;;;;;3.00;3.00;;;;;16.50;53.14;101514.00;5074164;27;45501;-55
2022/06/14 03:21:43;;;;;;;;;5.00;4.00;;;;;16.49;52.35;101523.00;5076413;27;45499;-57
2022/06/14 03:24:22;;;;;;;;;4.00;4.00;;;;;16.49;52.02;101512.28;5075899;27;45407;-56
2022/06/14 03:26:58;;;;;;;;;4.67;4.67;;;;;16.50;52.64;101523.88;5077180;27;45243;-58
2022/06/14 03:29:45;;;;;;;;;3.33;3.33;;;;;16.49;52.47;101533.75;5075139;27;45548;-57
2022/06/14 03:32:46;;;;;;;;;4.00;4.00;;;;;16.56;52.26;101522.63;5074300;27;47071;-57
2022/06/14 03:35:23;;;;;;;;;4.00;3.00;;;;;16.55;52.20;101526.28;5071250;27;45451;-57
2022/06/14 03:37:49;;;;;;;;;4.33;4.33;;;;;16.55;51.99;101529.81;5056507;28;45243;-56
2022/06/14 03:40:19;;;;;;;;;5.00;5.00;;;;;16.56;52.39;101528.00;5073265;28;45516;-55
2022/06/14 03:42:45;;;;;;;;;5.00;4.00;;;;;16.53;52.50;101532.59;5090756;27;45633;-59
2022/06/14 03:45:15;;;;;;;;;5.00;4.00;;;;;16.51;52.53;101526.44;5076388;27;45191;-56
2022/06/14 03:47:41;;;;;;;;;4.33;4.33;;;;;16.51;52.52;101521.09;5092879;27;45626;-58
2022/06/14 03:50:11;;;;;;;;;4.33;4.33;;;;;16.53;52.24;101519.16;5075318;27;45292;-57
2022/06/14 03:53:05;;;;;;;;;3.00;3.00;;;;;16.58;52.39;101521.56;5076523;27;45281;-57
2022/06/14 03:56:03;;;;;;;;;4.33;4.33;;;;;16.53;52.52;101523.66;5072710;27;45290;-57
2022/06/14 03:58:46;;;;;;;;;4.33;4.33;;;;;16.50;52.71;101524.72;5075737;27;45789;-56
2022/06/14 04:01:26;;;;;;;;;6.67;6.67;;;;;16.50;52.93;101518.50;5071318;27;45595;-61
2022/06/14 04:04:22;;;;;;;;;4.00;4.00;;;;;16.44;52.48;101524.28;5074253;27;45464;-62
2022/06/14 04:06:56;;;;;;;;;3.00;3.00;;;;;16.44;52.73;101522.47;5074496;27;45373;-55
2022/06/14 04:09:39;;;;;;;;;3.67;3.67;;;;;16.44;52.95;101527.84;5076494;27;45313;-56
2022/06/14 04:12:30;;;;;;;;;4.00;4.00;;;;;16.47;52.64;101519.56;5075276;27;45517;-57
2022/06/14 04:15:20;;;;;;;;;4.67;4.33;;;;;16.45;52.83;101526.00;5076475;27;45326;-58
2022/06/14 04:18:34;;;;;;;;;8.00;5.00;;;;;16.43;52.83;101525.25;5073476;27;45462;-61
2022/06/14 04:20:52;;;;;;;;;4.33;3.67;;;;;16.39;53.00;101527.25;5076420;28;45595;-60
2022/06/14 04:23:38;;;;;;;;;4.33;4.33;;;;;16.37;53.24;101526.50;5073713;28;45594;-58
2022/06/14 04:26:29;;;;;;;;;4.50;4.50;;;;;16.35;53.17;101531.13;5073360;27;47089;-57
2022/06/14 04:29:05;;;;;;;;;4.67;4.67;;;;;16.32;53.21;101531.31;5057231;27;45430;-58
2022/06/14 04:31:30;;;;;;;;;7.00;4.00;;;;;16.29;53.58;101528.84;5056336;28;45385;-59
2022/06/14 04:33:58;;;;;;;;;5.67;4.00;;;;;16.25;53.19;101518.38;5078803;27;46348;-60
2022/06/14 04:36:33;;;;;;;;;5.00;1.00;;;;;16.22;54.12;101519.44;5082251;27;45462;-58
2022/06/14 04:39:07;;;;;;;;;4.33;3.00;;;;;16.28;53.29;101518.22;5074504;27;45495;-60
2022/06/14 04:41:48;;;;;;;;;4.67;4.67;;;;;16.33;53.36;101527.69;5082034;27;45451;-59
2022/06/14 04:44:24;;;;;;;;;4.00;4.00;;;;;16.27;53.67;101516.47;5082511;27;45369;-56
2022/06/14 04:46:59;;;;;;;;;5.00;5.00;;;;;16.30;53.14;101522.50;5081808;27;45404;-58
2022/06/14 04:49:40;;;;;;;;;3.00;2.00;;;;;16.30;53.37;101521.66;5082289;27;45371;-59
2022/06/14 04:52:14;;;;;;;;;5.67;5.67;;;;;16.30;53.80;101513.59;5079874;27;45444;-59
2022/06/14 04:54:51;;;;;;;;;8.67;4.67;;;;;16.27;53.54;101516.47;5096542;27;46255;-58
2022/06/14 04:57:21;;;;;;;;;6.67;5.00;;;;;16.31;53.05;101521.56;5093617;27;45546;-57
2022/06/14 05:00:01;;;;;;;;;4.00;4.00;;;;;16.24;53.48;101514.84;5081169;28;45447;-58
2022/06/14 05:02:37;;;;;;;;;5.67;5.67;;;;;16.22;53.51;101519.44;5080373;27;45242;-62
2022/06/14 05:05:32;;;;;;;;;4.33;4.33;;;;;16.23;53.94;101515.81;5077420;28;45453;-59
2022/06/14 05:08:38;;;;;;;;;9.33;7.00;;;;;16.23;53.55;101508.63;5086057;27;45460;-65
2022/06/14 05:11:50;;;;;;;;;5.00;4.33;;;;;16.31;54.00;101518.00;5089968;27;45343;-62
2022/06/14 05:14:25;;;;;;;;;4.00;4.00;;;;;16.17;54.10;101516.22;5081436;28;45207;-57
2022/06/14 05:17:12;;;;;;;;;6.00;5.67;;;;;16.10;54.39;101504.16;5080218;27;46189;-59
2022/06/14 05:19:45;;;;;;;;;8.00;8.00;;;;;16.10;54.54;101509.50;5075039;27;45170;-58
2022/06/14 05:22:36;;;;;;;;;8.00;5.00;;;;;16.09;54.62;101502.44;5080823;27;45175;-61
2022/06/14 05:25:05;;;;;;;;;4.33;4.33;;;;;16.08;54.37;101506.06;5079082;27;45632;-58
2022/06/14 05:27:35;;;;;;;;;7.33;6.33;;;;;16.07;54.49;101515.09;5085494;27;46341;-57
2022/06/14 05:30:06;;;;;;;;;4.33;4.33;;;;;16.06;54.70;101508.84;5076555;27;45402;-57
2022/06/14 05:32:55;;;;;;;;;4.67;4.00;;;;;16.08;54.89;101506.06;5082365;27;45400;-58
2022/06/14 05:35:25;;;;;;;;;6.67;6.33;;;;;16.14;54.52;101508.34;5079056;27;45535;-57
2022/06/14 05:38:08;;;;;;;;;7.33;5.33;;;;;16.19;54.26;101504.41;5080915;28;45360;-60
2022/06/14 05:40:52;;;;;;;;;4.00;4.00;;;;;16.26;54.03;101518.28;5081942;27;45435;-54
2022/06/14 05:43:30;;;;;;;;;4.00;4.00;;;;;16.27;54.22;101511.09;5077503;27;45313;-58
2022/06/14 05:46:00;;;;;;;;;11.67;8.00;;;;;16.37;54.14;101515.75;5077858;28;45494;-65
2022/06/14 05:48:45;;;;;;;;;5.00;5.00;;;;;16.45;53.33;101520.66;5077711;27;45475;-66
2022/06/14 05:51:17;;;;;;;;;6.00;6.00;;;;;16.56;52.81;101522.63;5078424;27;45532;-60
2022/06/14 05:53:50;;;;;;;;;0.00;0.00;;;;;16.57;52.85;101518.97;5076631;27;45239;-63
2022/06/14 05:56:24;;;;;;;;;7.67;6.00;;;;;16.58;52.82;101520.69;5077050;27;45433;-60
2022/06/14 05:59:01;;;;;;;;;9.67;8.33;;;;;16.67;53.09;101520.09;5077685;27;45540;-60
2022/06/14 06:01:43;;;;;;;;;5.00;5.00;;;;;16.72;52.39;101515.28;5078102;27;45238;-67
2022/06/14 06:04:26;;;;;;;;;6.33;4.67;;;;;16.78;51.99;101514.88;5077555;28;45468;-65
2022/06/14 06:06:58;;;;;;;;;5.33;5.33;;;;;16.85;52.17;101508.13;5076413;27;45484;-62
2022/06/14 06:09:42;;;;;;;;;8.67;5.00;;;;;16.88;52.10;101513.28;5072772;27;48187;-64
2022/06/14 06:12:26;;;;;;;;;4.67;4.67;;;;;16.99;51.93;101515.25;5077340;27;46746;-70
2022/06/14 06:14:57;;;;;;;;;5.00;4.00;;;;;17.06;51.36;101506.69;5077723;27;45248;-65
2022/06/14 06:17:38;;;;;;;;;7.33;4.00;;;;;17.13;51.14;101517.00;5077754;27;45407;-63
2022/06/14 06:20:35;;;;;;;;;6.67;6.33;;;;;17.19;51.17;101508.50;5074701;28;46204;-58
2022/06/14 06:23:10;;;;;;;;;7.00;5.67;;;;;17.23;51.12;101502.81;5057966;28;45432;-61
2022/06/14 06:25:41;;;;;;;;;6.00;6.00;;;;;17.25;50.94;101500.00;5068345;28;45429;-61
2022/06/14 06:28:16;;;;;;;;;5.33;5.33;;;;;17.30;50.90;101500.53;5091085;27;45592;-61
2022/06/14 06:31:08;;;;;;;;;5.00;5.00;;;;;17.34;50.93;101494.00;5075550;27;46329;-64
2022/06/14 06:33:40;;;;;;;;;5.67;5.33;;;;;17.38;50.68;101490.13;5074478;27;45437;-63
2022/06/14 06:36:43;;;;;;;;;7.00;7.00;;;;;17.46;50.16;101477.00;5074718;27;45622;-61
2022/06/14 06:39:30;;;;;;;;;7.00;5.33;;;;;17.54;50.23;101482.69;5075587;27;45204;-61
2022/06/14 06:42:06;;;;;;;;;5.00;5.00;;;;;17.61;50.36;101481.28;5075831;27;46363;-57
2022/06/14 06:44:53;;;;;;;;;6.00;6.00;;;;;17.65;49.60;101488.16;5063279;28;45369;-63
2022/06/14 06:47:24;;;;;;;;;6.00;6.00;;;;;17.68;50.10;101489.78;5071874;27;45432;-60
2022/06/14 06:50:15;;;;;;;;;7.67;7.67;;;;;17.73;49.41;101489.50;5076804;27;45309;-62
2022/06/14 06:52:53;;;;;;;;;6.33;6.33;;;;;17.75;49.69;101485.72;5071706;27;45484;-61
2022/06/14 06:55:33;;;;;;;;;5.00;5.00;;;;;17.81;49.82;101495.16;5077295;27;45380;-61
2022/06/14 06:58:02;;;;;;;;;9.33;7.00;;;;;17.87;49.41;101481.28;5076052;27;45494;-61
2022/06/14 07:00:30;;;;;;;;;5.33;5.33;;;;;17.92;48.95;101473.72;5084521;27;45405;-62
2022/06/14 07:03:10;;;;;;;;;5.00;5.00;;;;;18.04;49.37;101480.91;5075719;27;45556;-61
2022/06/14 07:05:35;;;;;;;;;6.33;5.00;;;;;18.12;48.72;101475.81;5075566;27;45470;-62
2022/06/14 07:08:13;;;;;;;;;6.33;6.33;;;;;18.22;48.83;101478.69;5053382;28;45368;-59
2022/06/14 07:10:46;;;;;;;;;10.67;5.67;;;;;18.27;48.18;101480.06;5055586;28;45520;-64
2022/06/14 07:13:18;;;;;;;;;8.67;7.33;;;;;18.35;48.58;101476.78;5060286;27;46110;-61
2022/06/14 07:16:19;;;;;;;;;8.00;5.00;;;;;18.41;47.96;101470.97;5074682;27;45416;-68
2022/06/14 07:19:06;;;;;;;;;6.33;5.00;;;;;18.48;48.12;101466.81;5073921;27;45497;-64
2022/06/14 07:21:43;;;;;;;;;8.67;6.67;;;;;18.47;47.64;101464.25;5079583;27;45444;-63
2022/06/14 07:24:24;;;;;;;;;5.00;5.00;;;;;18.57;48.08;101463.44;5076840;28;46357;-56
2022/06/14 07:26:54;;;;;;;;;6.00;6.00;;;;;18.69;47.14;101464.38;5071637;27;45415;-51
2022/06/14 07:29:27;;;;;;;;;9.33;6.67;;;;;18.76;47.11;101460.25;5073575;27;45540;-57
2022/06/14 07:31:58;;;;;;;;;6.67;6.00;;;;;18.88;46.80;101462.94;5076800;27;45513;-58
2022/06/14 07:34:27;;;;;;;;;6.00;6.00;;;;;18.95;46.29;101458.81;5076805;27;45426;-54
2022/06/14 07:37:04;;;;;;;;;5.67;5.67;;;;;18.97;46.46;101452.31;5074189;27;45519;-51
2022/06/14 07:39:48;;;;;;;;;5.00;5.00;;;;;19.12;46.67;101456.53;5078867;27;45411;-54
2022/06/14 07:42:23;;;;;;;;;4.33;4.33;;;;;19.25;46.63;101450.16;5071905;27;45571;-50
2022/06/14 07:45:28;;;;;;;;;6.00;5.67;;;;;19.37;45.62;101444.66;5071384;27;45345;-54
2022/06/14 07:48:04;;;;;;;;;2.67;2.67;;;;;19.47;45.70;101444.78;5064597;28;45468;-58
2022/06/14 07:50:49;;;;;;;;;5.00;5.00;;;;;19.60;45.49;101447.41;5076833;27;45524;-54
2022/06/14 07:53:21;;;;;;;;;8.00;6.00;;;;;19.71;45.35;101444.69;5086828;27;45346;-55
2022/06/14 07:55:59;;;;;;;;;5.00;5.00;;;;;19.76;45.14;101445.16;5075270;27;45325;-49
2022/06/14 07:58:52;;;;;;;;;8.00;6.00;;;;;19.86;44.95;101440.75;5073079;27;45353;-57
2022/06/14 08:01:41;;;;;;;;;5.00;5.00;;;;;19.98;43.82;101439.75;5069282;27;45392;-55
2022/06/14 08:04:15;;;;;;;;;6.33;5.00;;;;;20.08;43.74;101437.16;5076370;28;45736;-57
2022/06/14 08:07:05;;;;;;;;;22.00;19.00;;;;;20.09;43.38;101425.38;5072478;27;47784;-56
2022/06/14 08:09:42;;;;;;;;;8.33;7.00;;;;;20.30;43.47;101438.91;5068525;27;45436;-51
2022/06/14 08:12:37;;;;;;;;;6.33;5.33;;;;;20.40;43.03;101429.03;5085263;27;45367;-52
2022/06/14 08:15:08;;;;;;;;;6.00;6.00;;;;;20.49;42.46;101433.72;5071482;27;45588;-52
2022/06/14 08:17:43;;;;;;;;;7.67;7.00;;;;;20.53;42.17;101424.34;5094088;27;48037;-55
2022/06/14 08:20:31;;;;;;;;;7.67;6.00;;;;;20.65;42.63;101424.31;5079548;27;45244;-53
2022/06/14 08:23:04;;;;;;;;;12.33;7.33;;;;;20.69;41.99;101417.63;5064880;27;45453;-55
2022/06/14 08:25:35;;;;;;;;;4.33;4.00;;;;;20.82;41.48;101412.91;5076152;27;45662;-55
2022/06/14 08:28:09;;;;;;;;;5.00;4.00;;;;;21.16;41.15;101414.41;5075639;27;45336;-55
2022/06/14 08:30:56;;;;;;;;;6.00;6.00;;;;;21.63;40.13;101406.66;5075968;27;45494;-55
2022/06/14 08:33:38;;;;;;;;;5.00;5.00;;;;;21.97;39.25;101401.72;5075724;27;45287;-61
2022/06/14 08:36:21;;;;;;;;;4.67;4.67;;;;;22.27;38.53;101405.38;5086989;27;45373;-57
2022/06/14 08:38:51;;;;;;;;;3.33;3.33;;;;;22.58;38.31;101397.94;5072924;27;46147;-53
2022/06/14 08:41:44;;;;;;;;;5.00;5.00;;;;;23.06;38.08;101395.19;5075640;27;45417;-56
2022/06/14 08:44:18;;;;;;;;;6.00;6.00;;;;;23.34;36.41;101398.78;5074631;27;45417;-52
2022/06/14 08:47:15;;;;;;;;;8.25;5.00;;;;;23.70;36.46;101393.47;5067387;27;45525;-59
2022/06/14 08:49:43;;;;;;;;;5.00;3.75;;;;;23.88;35.34;101396.25;5075204;28;45289;-57
2022/06/14 08:53:01;;;;;;;;;3.00;3.00;;;;;24.24;35.31;101392.56;5074344;27;45302;-55
2022/06/14 08:56:08;;;;;;;;;6.00;5.50;;;;;24.61;35.83;101392.44;5033779;28;45428;-56
2022/06/14 08:59:25;;;;;;;;;6.00;6.00;;;;;24.97;34.27;101390.44;5036825;28;45599;-57
2022/06/14 09:02:25;;;;;;;;;10.00;8.25;;;;;25.27;33.29;101391.88;5068440;28;45285;-52
2022/06/14 09:05:12;;;;;;;;;7.80;5.40;;;;;25.57;32.70;101381.44;5072159;28;45302;-59
2022/06/14 09:07:44;;;;;;;;;5.00;5.00;;;;;25.68;33.11;101394.78;5055620;28;45417;-59
2022/06/14 09:10:29;;;;;;;;;7.00;5.75;;;;;25.85;31.99;101391.09;5066410;27;45725;-57
2022/06/14 09:13:19;;;;;;;;;5.25;5.25;;;;;26.02;31.76;101392.00;5074959;27;45965;-53
2022/06/14 09:16:22;;;;;;;;;9.40;3.60;;;;;26.26;31.59;101388.44;5081004;27;45563;-55
2022/06/14 09:18:53;;;;;;;;;5.40;5.40;;;;;26.55;31.99;101384.41;5072687;27;45570;-56
2022/06/14 09:21:37;;;;;;;;;8.75;6.75;;;;;26.74;30.16;101389.53;5075081;27;45589;-55
2022/06/14 09:24:21;;;;;;;;;7.50;7.50;;;;;26.91;29.61;101380.28;5111381;27;47176;-56
2022/06/14 09:27:08;;;;;;;;;4.00;4.00;;;;;27.02;29.37;101381.84;5077898;27;45361;-56
2022/06/14 09:30:04;;;;;;;;;6.60;6.20;;;;;27.34;30.20;101369.94;5078283;27;46004;-68
2022/06/14 09:35:52;;;;;;;;;5.20;4.00;;;;;27.39;29.61;101375.75;5078531;27;45492;-63
2022/06/14 09:38:39;;;;;;;;;4.40;4.40;;;;;27.31;28.95;101373.03;5079263;27;45254;-62
2022/06/14 09:41:26;;;;;;;;;4.60;4.60;;;;;27.57;28.63;101356.38;5076267;28;45381;-59
2022/06/14 09:44:17;;;;;;;;;4.80;4.80;;;;;27.71;30.14;101368.44;5059717;28;45762;-62
2022/06/14 09:46:49;;;;;;;;;5.60;5.60;;;;;27.88;28.88;101361.88;5074789;28;46880;-60
2022/06/14 09:49:50;;;;;;;;;5.00;5.00;;;;;27.94;28.43;101373.97;5076936;27;45444;-53
2022/06/14 09:52:38;;;;;;;;;5.60;4.60;;;;;28.05;27.75;101377.13;5077123;27;45540;-53
2022/06/14 09:55:09;;;;;;;;;4.00;4.00;;;;;28.25;28.78;101374.75;5074145;27;45410;-65
2022/06/14 09:57:44;;;;;;;;;3.20;3.20;;;;;28.39;28.79;101370.44;5076346;27;46147;-65
2022/06/14 10:00:18;;;;;;;;;6.40;5.60;;;;;28.65;27.57;101373.63;5075256;27;45773;-62
2022/06/14 10:03:02;;;;;;;;;5.20;5.20;;;;;28.82;28.84;101373.47;5070989;28;45567;-62
2022/06/14 10:06:01;;;;;;;;;5.60;4.80;;;;;29.09;28.26;101364.66;5074938;28;45524;-64
2022/06/14 10:09:20;;;;;;;;;5.60;5.60;;;;;29.38;27.13;101359.16;5076512;27;46030;-64
2022/06/14 10:12:11;;;;;;;;;4.20;4.20;;;;;29.59;27.71;101354.81;5061231;27;45389;-59
2022/06/14 10:14:54;;;;;;;;;6.00;4.80;;;;;29.67;26.49;101357.44;5076738;28;45397;-60
2022/06/14 10:17:41;;;;;;;;;5.40;5.00;;;;;29.85;26.31;101357.03;5071969;28;45707;-66
2022/06/14 10:20:19;;;;;;;;;6.00;3.80;;;;;29.82;26.55;101350.03;5072947;28;45354;-63
2022/06/14 10:23:16;;;;;;;;;7.80;4.80;;;;;29.72;26.57;101344.00;5078016;27;45402;-59
2022/06/14 10:29:06;;;;;;;;;6.80;3.00;;;;;29.51;27.10;101346.69;5078848;28;45325;-63
2022/06/14 10:31:53;;;;;;;;;20.20;16.40;;;;;29.26;26.29;101349.72;5077363;27;45291;-66
2022/06/14 10:34:18;;;;;;;;;6.00;6.00;;;;;29.02;26.78;101347.25;5076141;27;45517;-68
2022/06/14 10:36:56;;;;;;;;;5.00;3.50;;;;;28.71;27.07;101344.66;5076690;27;45515;-64
2022/06/14 10:39:59;;;;;;;;;4.00;4.00;;;;;28.45;27.92;101347.81;5076766;27;45546;-65
2022/06/14 10:42:36;;;;;;;;;3.80;3.80;;;;;27.98;27.94;101353.41;5077510;28;45337;-67
2022/06/14 10:45:29;;;;;;;;;6.20;5.20;;;;;27.81;28.31;101345.34;5077988;27;45533;-65
2022/06/14 10:48:17;;;;;;;;;7.60;5.40;;;;;27.60;28.66;101335.00;5077672;27;45366;-65
2022/06/14 10:50:49;;;;;;;;;6.40;4.80;;;;;27.39;28.91;101337.50;5077636;27;45497;-64
2022/06/14 10:53:35;;;;;;;;;4.80;4.80;;;;;27.16;28.87;101336.56;5077504;27;46046;-65
2022/06/14 10:56:15;;;;;;;;;6.20;6.20;;;;;26.94;29.30;101322.59;5077880;27;45353;-65
2022/06/14 10:58:49;;;;;;;;;6.40;5.60;;;;;26.81;28.89;101321.44;5076481;28;45367;-66
2022/06/14 11:01:36;;;;;;;;;6.75;6.75;;;;;26.63;29.69;101313.47;5077615;27;45399;-64
2022/06/14 11:04:16;;;;;;;;;6.60;5.60;;;;;26.53;29.66;101307.34;5077725;28;45311;-66
2022/06/14 11:07:09;;;;;;;;;7.20;7.20;;;;;26.45;29.97;101309.06;5077468;27;45512;-66
2022/06/14 11:09:58;;;;;;;;;7.80;6.60;;;;;26.41;29.83;101310.41;5077908;28;45278;-65
2022/06/14 11:12:51;;;;;;;;;18.50;14.00;;;;;26.24;30.23;101308.69;5077630;27;45418;-66
2022/06/14 11:15:44;;;;;;;;;6.00;6.00;;;;;26.20;30.08;101301.91;5092782;27;46489;-65
2022/06/14 11:18:19;;;;;;;;;7.40;7.40;;;;;26.08;30.15;101295.06;5076775;28;45339;-66
2022/06/14 11:20:47;;;;;;;;;9.00;7.00;;;;;26.02;30.28;101290.28;5077070;27;45348;-66
2022/06/14 11:23:25;;;;;;;;;7.25;7.25;;;;;26.07;30.21;101290.66;5077408;27;45479;-66
2022/06/14 11:26:15;;;;;;;;;9.50;7.50;;;;;26.06;29.69;101291.69;5076748;27;46280;-65
2022/06/14 11:28:50;;;;;;;;;7.00;7.00;;;;;26.09;29.75;101284.00;5076805;28;45334;-65
2022/06/14 11:31:23;;;;;;;;;7.80;7.00;;;;;26.09;29.81;101272.25;5077332;27;45506;-67
2022/06/14 11:34:00;;;;;;;;;8.25;6.50;;;;;26.10;29.97;101271.22;5077266;27;45350;-65
2022/06/14 11:37:01;;;;;;;;;5.50;4.00;;;;;26.06;29.94;101273.44;5076846;27;46176;-64
2022/06/14 11:39:56;;;;;;;;;5.60;5.60;;;;;26.12;30.12;101261.84;5092713;27;45372;-65
2022/06/14 11:42:36;;;;;;;;;4.40;4.40;;;;;26.21;30.49;101256.41;5067784;27;45345;-63
2022/06/14 11:45:40;;;;;;;;;6.75;5.00;;;;;26.27;30.02;101255.69;5076463;28;45379;-65
2022/06/14 11:48:15;;;;;;;;;6.25;5.25;;;;;26.34;30.14;101248.53;5075784;28;46363;-66
2022/06/14 11:51:05;;;;;;;;;6.60;6.60;;;;;26.41;30.00;101239.50;5076796;28;45344;-65
2022/06/14 11:53:54;;;;;;;;;10.50;8.75;;;;;26.45;29.85;101235.44;5075617;28;45541;-65
2022/06/14 11:56:39;;;;;;;;;6.00;6.00;;;;;26.48;29.80;101233.38;5077033;28;45427;-66
2022/06/14 11:59:29;;;;;;;;;7.75;4.75;;;;;26.55;30.30;101240.66;5092454;27;45928;-66
2022/06/14 12:02:32;;;;;;;;;4.40;4.40;;;;;26.55;29.50;101245.28;5076538;28;45417;-66
2022/06/14 12:05:03;;;;;;;;;5.40;5.40;;;;;26.43;30.34;101229.31;5076699;28;45510;-66
2022/06/14 12:07:41;;;;;;;;;13.50;11.50;;;;;26.48;30.43;101225.19;5076973;27;45644;-65
2022/06/14 12:10:25;;;;;;;;;7.00;6.00;;;;;26.60;29.91;101226.53;5076840;27;45478;-65
2022/06/14 12:13:11;;;;;;;;;5.40;5.40;;;;;26.75;29.71;101224.75;5076633;28;45708;-66
2022/06/14 12:15:47;;;;;;;;;8.50;7.50;;;;;27.04;29.39;101226.88;5109715;27;45486;-66
2022/06/14 12:18:17;;;;;;;;;6.25;5.75;;;;;27.00;29.29;101218.19;5076420;27;45457;-67
2022/06/14 12:21:08;;;;;;;;;6.00;6.00;;;;;27.22;29.39;101227.50;5075858;27;45390;-66
2022/06/14 12:23:42;;;;;;;;;5.00;5.00;;;;;27.32;29.14;101224.50;5068763;28;45467;-66
2022/06/14 12:29:20;;;;;;;;;8.00;7.40;;;;;27.50;28.54;101205.13;5076081;28;45369;-66
2022/06/14 12:32:11;;;;;;;;;6.20;6.20;;;;;27.53;29.44;101202.88;5075426;28;46777;-66
2022/06/14 12:34:48;;;;;;;;;5.60;5.60;;;;;27.60;28.92;101202.97;5056197;28;45352;-66